Airfield :







YOU CAN JOIN US ON...

 
LOGIN :

Register | Disclaimer

   EN    FR    IT 

 









Legend :    VFR   Marginal VFR   IFR   Intensive IFR   Very Intensive IFR
Visi :
Ceiling :
>= 8 km
>= 3000ft
5 to 8 km
1000 to 3000 ft
1500m to 5 km
500 to 1000 ft
800 to 1500m
200 to 500 ft
< 800m
< 200 ft
Symbols :   Thunderstorms  Fog  Heavy snow  Heavy precipitations  Wind > 20 kt







- Airport Elevation : 38 ft
- IATA code : YMH


CYMH - Mary's Harbour

CURRENT METAR :
  • 210830Z AUTO VRB02KT 3SM BR BKN005 OVC010 08/08 A2971 RMK SLP063

EXPIRED METARs :
  • 210815Z AUTO 00000KT 2 1/4SM BR OVC008 08/08 A2971 RMK SLP062
  • 210800Z AUTO 22004KT 1 3/4SM -RA BR OVC006 08/08 A2971 RMK VIS VRB 1 1/2-2 1/2 SLP062
  • 210749Z AUTO 23004KT 1 3/4SM -RA BR OVC004 08/08 A2971 RMK SLP061
  • 210722Z AUTO 22003KT 170V240 2 1/4SM BR OVC004 08/08 A2970 RMK SLP059
  • 210700Z AUTO 24004KT 200V290 3SM BR OVC004 08/08 A2969 RMK SLP057
  • 210650Z AUTO VRB02KT 5SM BR OVC004 08/08 A2969 RMK SLP056
  • 210642Z AUTO 00000KT 6SM BR OVC004 08/08 A2969 RMK SLP056
  • 210621Z AUTO 00000KT 5SM BR OVC004 08/08 A2969 RMK SLP054
  • 210601Z AUTO VRB02KT 6SM BR OVC004 08/08 A2969 RMK SLP054

TAF TAF CYMH
Valid from the 21 at 09:00 until the 21 at 21:00 UTC


210838Z 2109/2121 VRB03KT 11/2SM -DZ BR OVC005
TEMPO 2109/2113 6SM BR OVC010
FM211300 14012KT P6SM BKN012
TEMPO 2113/2116 SCT012
FM211600 14012KT P6SM FEW012 BKN060
FM212000 15012KT P6SM BKN012 RMK FCST BASED ON AUTO OBS. NXT FCST BY 211400Z
CZQX FIR / North America



MET'MAP, your aeronautical weather chart ! - Copyright ORBIFLY December 2007 - Disclaimer

ORBIFLY MET'MAP TEAM :

Programming & Development : Alexandra Zaïnal
Concept & Development : Baudouin d'Aumeries
Co-Development & Prog : Marc-Olivier Méhu
Technical & hardware support : Manuel Goepfert

Contact : metmap@orbifly.com




SOURCES & CREDITS :

   NOAA